Time;durP1;ratioP1;P1;durP2;ratioP2;P2;SDS_P1;SDS_P2;PMS_P1;PMS_P2;Temp;Humidity;BMP_temperature;BMP_pressure;BME280_temperature;BME280_humidity;BME280_pressure;Samples;Min_cycle;Max_cycle;Signal;HPM_P1;HPM_P2
2023/03/17 00:00:40;;;;;;;7.50;4.40;;;7.50;99.90;;;;;;6211661;23;20021;-87
2023/03/17 00:03:06;;;;;;;8.18;4.40;;;7.50;99.90;;;;;;6185740;23;20448;-86
2023/03/17 00:05:35;;;;;;;8.60;4.88;;;7.50;99.90;;;;;;6210410;23;20107;-86
2023/03/17 00:08:11;;;;;;;7.40;4.50;;;7.50;99.90;;;;;;6213709;23;20009;-86
2023/03/17 00:10:36;;;;;;;6.82;3.33;;;7.50;99.90;;;;;;6212460;23;20023;-86
2023/03/17 00:13:02;;;;;;;8.57;4.63;;;7.50;99.90;;;;;;6185061;23;20017;-87
2023/03/17 00:15:29;;;;;;;8.23;4.80;;;7.60;99.90;;;;;;6185286;23;20012;-86
2023/03/17 00:17:56;;;;;;;7.55;4.50;;;7.60;99.90;;;;;;6186779;23;20025;-86
2023/03/17 00:20:27;;;;;;;7.32;4.18;;;7.60;99.90;;;;;;6212278;23;20013;-87
2023/03/17 00:22:56;;;;;;;7.05;4.50;;;7.60;99.90;;;;;;6213873;23;20015;-87
2023/03/17 00:25:27;;;;;;;8.35;4.60;;;7.60;99.90;;;;;;6212047;23;20059;-86
2023/03/17 00:27:54;;;;;;;7.85;3.42;;;7.60;99.90;;;;;;6186287;23;20016;-86
2023/03/17 00:30:21;;;;;;;7.25;3.30;;;7.60;99.90;;;;;;6185109;23;20080;-86
2023/03/17 00:32:50;;;;;;;7.03;4.25;;;7.60;99.90;;;;;;6212698;23;20017;-86
2023/03/17 00:35:24;;;;;;;7.93;4.50;;;7.60;99.90;;;;;;6211833;23;20079;-86
2023/03/17 00:37:53;;;;;;;8.13;4.38;;;7.60;99.90;;;;;;6160937;23;20004;-86
2023/03/17 00:40:22;;;;;;;8.45;4.82;;;7.60;99.90;;;;;;6210892;23;20031;-86
2023/03/17 00:42:50;;;;;;;6.95;3.45;;;7.70;99.90;;;;;;6213032;23;20075;-86
2023/03/17 00:45:16;;;;;;;7.93;4.55;;;7.70;99.90;;;;;;6185792;23;20012;-86
2023/03/17 00:47:44;;;;;;;7.25;4.50;;;7.70;99.90;;;;;;6213216;23;20019;-86
2023/03/17 00:50:12;;;;;;;7.53;4.60;;;7.70;99.90;;;;;;6190709;23;20016;-87
2023/03/17 00:52:38;;;;;;;7.63;4.60;;;7.70;99.90;;;;;;6221244;23;20024;-86
2023/03/17 00:55:05;;;;;;;7.20;3.10;;;7.70;99.90;;;;;;6162761;23;20446;-86
2023/03/17 00:57:31;;;;;;;8.25;4.32;;;7.70;99.90;;;;;;6212640;23;20390;-87
2023/03/17 00:59:57;;;;;;;7.65;4.30;;;7.70;99.90;;;;;;6160242;23;20044;-87
2023/03/17 01:02:23;;;;;;;7.75;4.20;;;7.60;99.90;;;;;;6185692;23;20312;-86
2023/03/17 01:04:49;;;;;;;7.57;4.40;;;7.60;99.90;;;;;;6185417;23;20095;-86
2023/03/17 01:07:15;;;;;;;8.38;4.35;;;7.60;99.90;;;;;;6211682;23;20012;-86
2023/03/17 01:09:41;;;;;;;9.05;4.60;;;7.60;99.90;;;;;;6197711;23;20040;-86
2023/03/17 01:12:11;;;;;;;8.93;4.68;;;7.70;99.90;;;;;;6186380;23;20328;-86
2023/03/17 01:14:37;;;;;;;8.13;4.75;;;7.60;99.90;;;;;;6211542;23;20069;-87
2023/03/17 01:17:05;;;;;;;8.85;3.40;;;7.60;99.90;;;;;;6211789;23;20346;-86
2023/03/17 01:19:30;;;;;;;7.80;4.43;;;7.50;99.90;;;;;;6209816;23;20020;-86
2023/03/17 01:21:56;;;;;;;7.88;4.50;;;7.60;99.90;;;;;;6186506;23;20055;-86
2023/03/17 01:24:22;;;;;;;8.15;4.68;;;7.60;99.90;;;;;;6210483;23;20505;-86
2023/03/17 01:26:48;;;;;;;8.32;4.88;;;7.60;99.90;;;;;;6211273;23;20043;-86
2023/03/17 01:29:13;;;;;;;7.55;3.50;;;7.60;99.90;;;;;;6209550;23;20496;-86
2023/03/17 01:31:40;;;;;;;8.55;4.47;;;7.50;99.90;;;;;;6212606;23;20009;-86
2023/03/17 01:34:05;;;;;;;7.95;4.63;;;7.50;99.90;;;;;;6185593;23;20027;-86
2023/03/17 01:36:31;;;;;;;8.80;5.25;;;7.50;99.90;;;;;;6214051;23;20381;-86
2023/03/17 01:38:57;;;;;;;7.63;5.10;;;7.60;99.90;;;;;;6214719;23;20008;-86
2023/03/17 01:41:23;;;;;;;9.10;4.82;;;7.50;99.90;;;;;;6212553;23;20009;-86
2023/03/17 01:43:50;;;;;;;8.75;4.88;;;7.50;99.90;;;;;;6186795;23;20028;-87
2023/03/17 01:46:26;;;;;;;9.13;4.90;;;7.50;99.90;;;;;;6211256;23;20031;-86
2023/03/17 01:49:11;;;;;;;7.25;3.25;;;7.50;99.90;;;;;;6187255;23;20024;-86
2023/03/17 01:51:53;;;;;;;8.57;3.88;;;7.50;99.90;;;;;;6189422;23;20024;-86
2023/03/17 01:54:34;;;;;;;7.38;4.70;;;7.40;99.90;;;;;;6215653;23;20015;-87
2023/03/17 01:57:23;;;;;;;8.47;4.00;;;7.50;99.90;;;;;;6216032;23;20036;-86
2023/03/17 01:59:54;;;;;;;7.55;4.60;;;7.40;99.90;;;;;;6212889;23;20012;-86
2023/03/17 02:02:29;;;;;;;8.93;4.43;;;7.40;99.90;;;;;;6214195;23;20095;-86
2023/03/17 02:04:56;;;;;;;9.52;5.05;;;7.40;99.90;;;;;;6214137;23;20024;-86
2023/03/17 02:07:25;;;;;;;8.13;4.75;;;7.40;99.90;;;;;;6211882;23;20019;-86
2023/03/17 02:09:52;;;;;;;7.65;3.67;;;7.40;99.90;;;;;;6213423;23;20500;-86
2023/03/17 02:12:19;;;;;;;7.97;3.47;;;7.40;99.90;;;;;;6213550;23;20023;-85
2023/03/17 02:14:45;;;;;;;7.38;4.38;;;7.30;99.90;;;;;;6186950;23;20012;-87
2023/03/17 02:17:11;;;;;;;8.43;5.20;;;7.40;99.90;;;;;;6214250;23;20013;-86
2023/03/17 02:19:37;;;;;;;7.82;4.82;;;7.40;99.90;;;;;;6186496;23;20031;-86
2023/03/17 02:22:03;;;;;;;7.88;4.75;;;7.40;99.90;;;;;;6214040;23;20021;-86
2023/03/17 02:24:36;;;;;;;9.13;5.13;;;7.30;99.90;;;;;;6160981;23;20019;-86
2023/03/17 02:27:09;;;;;;;8.50;4.85;;;7.30;99.90;;;;;;6187444;23;20043;-86
2023/03/17 02:29:36;;;;;;;9.07;5.03;;;7.40;99.90;;;;;;6185537;23;20016;-86
2023/03/17 02:32:03;;;;;;;8.45;4.63;;;7.40;99.90;;;;;;6186213;23;20027;-86
2023/03/17 02:34:28;;;;;;;9.35;4.80;;;7.40;99.90;;;;;;6213478;23;20013;-86
2023/03/17 02:36:54;;;;;;;8.20;4.90;;;7.40;99.90;;;;;;6213215;23;20004;-86
2023/03/17 02:39:20;;;;;;;8.95;3.45;;;7.40;99.90;;;;;;6212130;23;20378;-86
2023/03/17 02:41:45;;;;;;;8.32;4.03;;;7.40;99.90;;;;;;6211732;23;20036;-86
2023/03/17 02:44:11;;;;;;;8.05;4.90;;;7.40;99.90;;;;;;6185656;23;20028;-85
2023/03/17 02:46:37;;;;;;;9.48;5.22;;;7.40;99.90;;;;;;6186882;23;20021;-86
2023/03/17 02:49:03;;;;;;;8.00;4.90;;;7.40;99.90;;;;;;6186445;23;20021;-86
2023/03/17 02:51:29;;;;;;;7.32;3.90;;;7.40;99.90;;;;;;6185622;23;20084;-86
2023/03/17 02:53:55;;;;;;;10.45;4.95;;;7.40;99.90;;;;;;6214022;23;20044;-86
2023/03/17 02:56:20;;;;;;;8.48;4.93;;;7.40;99.90;;;;;;6186493;23;20017;-86
2023/03/17 02:58:46;;;;;;;7.75;4.45;;;7.40;99.90;;;;;;6185643;23;20017;-86
2023/03/17 03:01:12;;;;;;;8.15;4.80;;;7.30;99.90;;;;;;6187692;23;20012;-86
2023/03/17 03:03:37;;;;;;;8.48;4.97;;;7.30;99.90;;;;;;6214244;23;20311;-86
2023/03/17 03:06:03;;;;;;;9.20;5.30;;;7.30;99.90;;;;;;6187090;23;20020;-86
2023/03/17 03:08:29;;;;;;;8.20;3.88;;;7.30;99.90;;;;;;6190854;23;20043;-86
2023/03/17 03:10:55;;;;;;;8.93;4.72;;;7.30;99.90;;;;;;6197618;23;20649;-86
2023/03/17 03:13:21;;;;;;;7.88;4.60;;;7.30;99.90;;;;;;6191965;23;20032;-86
2023/03/17 03:15:47;;;;;;;7.57;3.50;;;7.30;99.90;;;;;;6218118;23;20326;-86
2023/03/17 03:18:13;;;;;;;8.23;5.05;;;7.30;99.90;;;;;;6189327;23;20080;-86
2023/03/17 03:20:42;;;;;;;7.93;4.53;;;7.30;99.90;;;;;;6161949;23;20039;-86
2023/03/17 03:23:07;;;;;;;7.60;4.53;;;7.30;99.90;;;;;;6213986;23;20087;-86
2023/03/17 03:25:36;;;;;;;9.15;4.93;;;7.30;99.90;;;;;;6214050;23;20398;-86
2023/03/17 03:28:03;;;;;;;7.47;4.72;;;7.30;99.90;;;;;;6186308;23;20012;-86
2023/03/17 03:30:28;;;;;;;8.45;4.93;;;7.30;99.90;;;;;;6212944;23;20028;-86
2023/03/17 03:32:54;;;;;;;7.80;4.72;;;7.30;99.90;;;;;;6186698;23;20012;-86
2023/03/17 03:35:20;;;;;;;7.25;3.50;;;7.30;99.90;;;;;;6211333;23;20495;-86
2023/03/17 03:37:46;;;;;;;9.13;4.70;;;7.30;99.90;;;;;;6185838;23;20039;-86
2023/03/17 03:40:12;;;;;;;7.45;4.78;;;7.30;99.90;;;;;;6213412;23;20044;-86
2023/03/17 03:42:37;;;;;;;8.25;3.42;;;7.40;99.90;;;;;;6185853;23;20020;-86
2023/03/17 03:45:04;;;;;;;7.05;3.40;;;7.40;99.90;;;;;;6213392;23;20023;-86
2023/03/17 03:47:29;;;;;;;8.70;4.90;;;7.30;99.90;;;;;;6211941;23;20016;-86
2023/03/17 03:49:55;;;;;;;7.30;4.35;;;7.30;99.90;;;;;;6186753;23;20460;-86
2023/03/17 03:52:21;;;;;;;7.95;4.78;;;7.40;99.90;;;;;;6186063;23;20493;-86
2023/03/17 03:54:46;;;;;;;8.50;4.80;;;7.40;99.90;;;;;;6186792;23;20017;-86
2023/03/17 03:57:12;;;;;;;8.52;4.90;;;7.40;99.90;;;;;;6186184;23;20426;-86
2023/03/17 03:59:38;;;;;;;8.68;4.32;;;7.40;99.90;;;;;;6185950;23;20091;-86
2023/03/17 04:02:03;;;;;;;7.97;4.40;;;7.40;99.90;;;;;;6211161;23;20020;-86
2023/03/17 04:04:29;;;;;;;8.40;3.33;;;7.40;99.90;;;;;;6185410;23;20013;-86
2023/03/17 04:06:55;;;;;;;8.10;3.50;;;7.40;99.90;;;;;;6186391;23;20013;-86
2023/03/17 04:09:21;;;;;;;8.57;4.88;;;7.40;99.90;;;;;;6212133;23;20016;-86
2023/03/17 04:11:46;;;;;;;8.00;4.25;;;7.40;99.90;;;;;;6186751;23;20016;-86
2023/03/17 04:14:12;;;;;;;7.78;4.60;;;7.50;99.90;;;;;;6211861;23;20099;-85
2023/03/17 04:16:38;;;;;;;7.32;4.68;;;7.50;99.90;;;;;;6184773;23;20733;-85
2023/03/17 04:19:04;;;;;;;9.77;3.63;;;7.50;99.90;;;;;;6185926;23;20066;-86
2023/03/17 04:21:29;;;;;;;7.68;4.50;;;7.40;99.90;;;;;;6185360;23;20013;-86
2023/03/17 04:23:55;;;;;;;9.15;4.60;;;7.40;99.90;;;;;;6188528;23;20023;-85
2023/03/17 04:26:21;;;;;;;8.63;4.65;;;7.40;99.90;;;;;;6186499;23;20027;-86
2023/03/17 04:28:48;;;;;;;8.27;4.53;;;7.40;99.90;;;;;;6188098;23;20435;-85
2023/03/17 04:31:14;;;;;;;8.88;5.13;;;7.40;99.90;;;;;;6186819;23;20017;-86
2023/03/17 04:33:40;;;;;;;8.48;4.85;;;7.50;99.90;;;;;;6187232;23;20048;-86
2023/03/17 04:36:06;;;;;;;7.53;4.28;;;7.40;99.90;;;;;;6213667;23;20009;-86
2023/03/17 04:38:32;;;;;;;7.45;4.57;;;7.50;99.90;;;;;;6216504;23;20050;-86
2023/03/17 04:40:58;;;;;;;7.88;4.38;;;7.50;99.90;;;;;;6218309;23;20035;-86
2023/03/17 04:43:24;;;;;;;9.40;3.90;;;7.50;99.90;;;;;;6194253;23;20013;-86
2023/03/17 04:45:50;;;;;;;8.10;4.40;;;7.40;99.90;;;;;;6187983;23;20017;-85
2023/03/17 04:48:16;;;;;;;9.25;3.42;;;7.40;99.90;;;;;;6184958;23;20024;-86
2023/03/17 04:50:43;;;;;;;7.32;4.47;;;7.40;99.90;;;;;;6209399;23;20012;-86
2023/03/17 04:53:08;;;;;;;8.82;4.70;;;7.40;99.90;;;;;;6186243;23;20027;-86
2023/03/17 04:55:34;;;;;;;7.75;4.35;;;7.40;99.90;;;;;;6211345;23;20034;-86
2023/03/17 04:58:00;;;;;;;9.85;4.70;;;7.40;99.90;;;;;;6185716;23;20017;-86
2023/03/17 05:00:26;;;;;;;8.07;3.65;;;7.40;99.90;;;;;;6211060;23;20075;-86
2023/03/17 05:02:52;;;;;;;7.97;4.50;;;7.40;99.90;;;;;;6211632;23;20417;-86
2023/03/17 05:05:17;;;;;;;8.40;4.60;;;7.40;99.90;;;;;;6185795;23;20016;-86
2023/03/17 05:07:43;;;;;;;9.20;4.75;;;7.40;99.90;;;;;;6186323;23;20009;-87
2023/03/17 05:10:11;;;;;;;7.90;4.20;;;7.40;99.90;;;;;;6213197;23;20024;-86
2023/03/17 05:12:36;;;;;;;8.25;4.40;;;7.40;99.90;;;;;;6190715;23;20377;-85
2023/03/17 05:15:04;;;;;;;9.23;4.70;;;7.50;99.90;;;;;;6190298;23;20012;-86
2023/03/17 05:17:29;;;;;;;7.57;4.50;;;7.50;99.90;;;;;;6186132;23;20080;-86
2023/03/17 05:19:55;;;;;;;7.47;4.55;;;7.50;99.90;;;;;;6186563;23;20385;-86
2023/03/17 05:22:21;;;;;;;8.20;5.05;;;7.50;99.90;;;;;;6183121;23;20047;-86
2023/03/17 05:24:46;;;;;;;7.40;4.47;;;7.50;99.90;;;;;;6186853;23;20342;-86
2023/03/17 05:27:12;;;;;;;8.23;4.90;;;7.50;99.90;;;;;;6162588;23;20017;-87
2023/03/17 05:29:38;;;;;;;8.38;4.20;;;7.50;99.90;;;;;;6214376;23;20015;-86
2023/03/17 05:32:04;;;;;;;7.13;3.35;;;7.50;99.90;;;;;;6187762;23;20044;-86
2023/03/17 05:34:30;;;;;;;8.65;4.30;;;7.50;99.90;;;;;;6213814;23;20019;-86
2023/03/17 05:36:55;;;;;;;8.98;5.10;;;7.40;99.90;;;;;;6162112;23;20084;-86
2023/03/17 05:39:21;;;;;;;8.07;4.28;;;7.40;99.90;;;;;;6187311;23;20013;-86
2023/03/17 05:41:47;;;;;;;8.45;4.57;;;7.40;99.90;;;;;;6187123;23;20095;-86
2023/03/17 05:44:13;;;;;;;7.75;4.53;;;7.40;99.90;;;;;;6214168;23;20087;-86
2023/03/17 05:46:39;;;;;;;9.57;4.90;;;7.40;99.90;;;;;;6212582;23;20017;-85
2023/03/17 05:49:05;;;;;;;8.88;3.40;;;7.40;99.90;;;;;;6214099;23;20012;-86
2023/03/17 05:51:30;;;;;;;7.68;4.65;;;7.40;99.90;;;;;;6213588;23;20047;-89
2023/03/17 05:53:56;;;;;;;8.10;4.43;;;7.40;99.90;;;;;;6186834;23;20012;-88
2023/03/17 05:56:22;;;;;;;8.05;3.67;;;7.40;99.90;;;;;;6215076;23;20044;-89
2023/03/17 05:58:48;;;;;;;8.77;4.85;;;7.40;99.90;;;;;;6214714;23;20371;-90
2023/03/17 06:01:14;;;;;;;8.52;4.28;;;7.40;99.90;;;;;;6187637;23;20020;-88
2023/03/17 06:03:40;;;;;;;9.25;5.00;;;7.50;99.90;;;;;;6212929;23;20012;-86
2023/03/17 06:06:06;;;;;;;8.80;4.50;;;7.50;99.90;;;;;;6214401;23;20015;-87
2023/03/17 06:08:32;;;;;;;8.05;4.68;;;7.50;99.90;;;;;;6186112;23;20096;-88
2023/03/17 06:10:57;;;;;;;8.23;4.97;;;7.60;99.90;;;;;;6188169;23;20017;-89
2023/03/17 06:13:23;;;;;;;7.47;4.60;;;7.60;99.90;;;;;;6161237;23;20021;-88
2023/03/17 06:15:52;;;;;;;9.07;4.68;;;7.60;99.90;;;;;;6162486;23;20491;-87
2023/03/17 06:18:18;;;;;;;8.77;4.30;;;7.70;99.90;;;;;;6211547;23;20035;-87
2023/03/17 06:20:44;;;;;;;7.32;3.40;;;7.70;99.90;;;;;;6184986;23;20346;-87
2023/03/17 06:23:10;;;;;;;8.93;4.57;;;7.70;99.90;;;;;;6182429;23;20083;-87
2023/03/17 06:25:36;;;;;;;7.85;4.38;;;7.80;99.90;;;;;;6158956;23;20016;-87
2023/03/17 06:28:04;;;;;;;8.23;4.75;;;7.90;99.90;;;;;;6187884;23;20023;-86
2023/03/17 06:30:31;;;;;;;9.52;4.90;;;8.00;99.90;;;;;;6186088;23;20021;-87
2023/03/17 06:32:57;;;;;;;7.90;4.53;;;8.00;99.90;;;;;;6209368;23;20051;-86
2023/03/17 06:35:24;;;;;;;8.07;4.53;;;8.00;99.90;;;;;;6212233;23;20009;-89
2023/03/17 06:37:49;;;;;;;8.40;4.30;;;8.10;99.90;;;;;;6186679;23;20016;-88
2023/03/17 06:40:15;;;;;;;8.40;5.00;;;8.10;99.90;;;;;;6162973;23;20438;-87
2023/03/17 06:42:41;;;;;;;8.88;4.65;;;8.20;99.90;;;;;;6187190;23;20021;-90
2023/03/17 06:45:08;;;;;;;9.10;4.68;;;8.20;99.90;;;;;;6187452;23;20516;-87
2023/03/17 06:47:36;;;;;;;8.65;4.60;;;8.30;99.90;;;;;;6163714;23;20195;-87
2023/03/17 06:50:02;;;;;;;7.57;4.63;;;8.30;99.90;;;;;;6218641;23;20013;-87
2023/03/17 06:52:28;;;;;;;9.18;5.18;;;8.30;99.90;;;;;;6193640;23;20012;-89
2023/03/17 06:54:54;;;;;;;9.45;4.68;;;8.40;99.90;;;;;;6226837;23;20009;-86
2023/03/17 06:57:20;;;;;;;9.93;5.10;;;8.40;99.90;;;;;;6200094;23;20017;-86
2023/03/17 06:59:46;;;;;;;9.07;4.80;;;8.40;99.90;;;;;;6192843;23;20434;-88
2023/03/17 07:02:11;;;;;;;9.35;4.90;;;8.40;99.90;;;;;;6215639;23;20420;-88
2023/03/17 07:04:37;;;;;;;7.65;4.32;;;8.40;99.90;;;;;;6163010;23;20012;-86
2023/03/17 07:07:06;;;;;;;8.18;4.70;;;8.50;99.90;;;;;;6186662;23;20039;-87
2023/03/17 07:09:33;;;;;;;7.78;4.15;;;8.50;99.90;;;;;;6214921;23;20454;-88
2023/03/17 07:12:03;;;;;;;9.30;4.70;;;8.60;99.90;;;;;;6190520;23;20065;-89
2023/03/17 07:14:31;;;;;;;9.30;4.70;;;8.60;99.90;;;;;;6187668;23;20020;-89
2023/03/17 07:16:57;;;;;;;9.63;4.70;;;8.60;99.90;;;;;;6187531;23;20267;-87
2023/03/17 07:19:23;;;;;;;9.10;4.75;;;8.70;99.90;;;;;;6215304;23;20016;-88
2023/03/17 07:21:48;;;;;;;8.43;4.47;;;8.70;99.90;;;;;;6200674;23;20017;-93
2023/03/17 07:24:14;;;;;;;10.35;4.97;;;8.70;99.90;;;;;;6229713;23;20024;-89
2023/03/17 07:26:40;;;;;;;9.13;4.82;;;8.70;99.90;;;;;;6207148;23;20016;-92
2023/03/17 07:29:07;;;;;;;8.02;4.70;;;8.80;99.90;;;;;;6178650;23;20009;-90
2023/03/17 07:31:32;;;;;;;8.93;4.75;;;8.90;99.90;;;;;;6200162;23;20019;-92
2023/03/17 07:33:58;;;;;;;8.00;4.60;;;8.90;99.90;;;;;;6191949;23;20009;-91
2023/03/17 07:36:24;;;;;;;8.20;4.78;;;9.00;99.90;;;;;;6219446;23;20012;-93
2023/03/17 07:38:49;;;;;;;8.27;4.68;;;9.00;99.90;;;;;;6195309;23;20048;-95
2023/03/17 07:41:15;;;;;;;8.30;4.93;;;9.00;99.90;;;;;;6192773;23;20036;-93
2023/03/17 07:43:41;;;;;;;8.00;4.70;;;9.00;99.90;;;;;;6190526;23;20027;-95
2023/03/17 07:46:07;;;;;;;8.50;5.07;;;9.00;99.90;;;;;;6167015;23;20035;-92
2023/03/17 07:48:33;;;;;;;8.90;5.00;;;9.10;99.90;;;;;;6162879;23;20067;-90
2023/03/17 07:50:59;;;;;;;10.10;5.20;;;9.20;99.90;;;;;;6213264;23;20092;-89
2023/03/17 07:53:25;;;;;;;10.70;5.00;;;9.20;99.90;;;;;;6186902;23;20012;-89
2023/03/17 07:55:51;;;;;;;10.43;5.13;;;9.30;99.90;;;;;;6186589;23;20095;-89
2023/03/17 07:58:17;;;;;;;8.70;5.10;;;9.30;99.90;;;;;;6213553;23;20043;-89
2023/03/17 08:00:42;;;;;;;10.43;5.50;;;9.40;99.90;;;;;;6186783;23;20433;-89
2023/03/17 08:03:08;;;;;;;9.40;5.20;;;9.50;99.90;;;;;;6187295;23;20017;-89
2023/03/17 08:05:34;;;;;;;9.38;4.90;;;9.60;99.90;;;;;;6186521;23;20019;-90
2023/03/17 08:07:59;;;;;;;9.93;5.72;;;9.70;99.90;;;;;;6187602;23;20315;-89
2023/03/17 08:10:25;;;;;;;8.90;5.20;;;9.70;99.90;;;;;;6207671;23;20067;-90
2023/03/17 08:12:52;;;;;;;9.70;5.30;;;9.80;99.90;;;;;;6214024;23;20070;-90
2023/03/17 08:15:18;;;;;;;8.27;5.18;;;9.90;99.90;;;;;;6212283;23;20020;-90
2023/03/17 08:17:44;;;;;;;8.73;5.03;;;9.90;99.90;;;;;;6212692;23;20268;-90
2023/03/17 08:20:10;;;;;;;10.23;5.10;;;9.90;99.90;;;;;;6210197;23;20079;-95
2023/03/17 08:22:36;;;;;;;9.38;5.45;;;9.90;99.90;;;;;;6211379;23;20331;-87
2023/03/17 08:25:02;;;;;;;7.78;4.88;;;10.00;99.90;;;;;;6210451;23;20016;-87
2023/03/17 08:27:28;;;;;;;11.10;5.10;;;10.00;99.90;;;;;;6210625;23;20017;-92
2023/03/17 08:29:54;;;;;;;9.45;5.60;;;10.10;99.90;;;;;;6212599;23;20052;-90
2023/03/17 08:32:20;;;;;;;9.90;5.10;;;10.20;99.90;;;;;;6209676;23;20147;-88
2023/03/17 08:34:47;;;;;;;8.02;5.03;;;10.30;99.90;;;;;;6209802;23;20431;-88
2023/03/17 08:37:12;;;;;;;8.77;4.95;;;10.40;99.90;;;;;;6183669;23;20009;-88
2023/03/17 08:39:39;;;;;;;9.93;5.00;;;10.50;99.90;;;;;;6209593;23;20228;-88
2023/03/17 08:42:04;;;;;;;8.38;5.20;;;10.60;99.90;;;;;;6211694;23;20298;-87
2023/03/17 08:44:30;;;;;;;8.43;5.05;;;10.60;99.90;;;;;;6210938;23;20544;-90
2023/03/17 08:46:56;;;;;;;8.20;4.88;;;10.70;99.90;;;;;;6210232;23;20103;-86
2023/03/17 08:49:22;;;;;;;8.18;5.00;;;10.80;99.90;;;;;;6209466;23;20572;-87
2023/03/17 08:51:48;;;;;;;9.30;5.10;;;10.80;99.90;;;;;;6212305;23;20044;-88
2023/03/17 08:54:14;;;;;;;8.73;5.25;;;10.80;99.90;;;;;;6184528;23;20020;-86
2023/03/17 08:56:41;;;;;;;8.73;5.07;;;10.90;99.90;;;;;;6215646;23;20338;-91
2023/03/17 08:59:08;;;;;;;8.15;5.20;;;10.90;99.90;;;;;;6211060;23;20016;-87
2023/03/17 09:01:34;;;;;;;8.20;5.20;;;10.90;99.90;;;;;;6211472;23;20012;-89
2023/03/17 09:04:01;;;;;;;7.90;5.07;;;10.90;99.90;;;;;;6189039;23;20028;-88
2023/03/17 09:06:27;;;;;;;8.85;5.15;;;10.90;99.90;;;;;;6212041;23;20315;-87
2023/03/17 09:08:55;;;;;;;8.57;5.53;;;11.00;99.90;;;;;;6210992;23;20088;-90
2023/03/17 09:11:24;;;;;;;8.88;5.40;;;11.10;99.90;;;;;;6212994;23;20005;-89
2023/03/17 09:13:51;;;;;;;9.13;5.10;;;11.20;99.90;;;;;;6213990;23;20044;-87
2023/03/17 09:16:16;;;;;;;9.25;5.20;;;11.30;99.90;;;;;;6213417;23;20020;-88
2023/03/17 09:18:43;;;;;;;8.45;5.03;;;11.40;99.90;;;;;;6209998;23;20013;-89
2023/03/17 09:21:11;;;;;;;8.98;5.38;;;11.50;99.90;;;;;;6211441;23;20016;-86
2023/03/17 09:23:37;;;;;;;8.38;4.93;;;11.60;99.90;;;;;;6210988;23;20093;-88
2023/03/17 09:26:02;;;;;;;8.45;5.32;;;11.60;99.90;;;;;;6211462;23;20385;-90
2023/03/17 09:28:28;;;;;;;9.65;5.28;;;11.80;99.90;;;;;;6212899;23;20016;-86
2023/03/17 09:31:02;;;;;;;9.73;4.95;;;12.00;99.90;;;;;;6216548;23;20071;-87
2023/03/17 09:33:28;;;;;;;10.40;5.60;;;12.20;99.90;;;;;;6225512;23;20013;-87
2023/03/17 09:35:57;;;;;;;7.90;5.03;;;12.30;99.90;;;;;;6187839;23;20008;-87
2023/03/17 09:38:25;;;;;;;8.23;5.10;;;12.50;99.90;;;;;;6184594;23;20039;-86
2023/03/17 09:41:07;;;;;;;10.23;5.20;;;12.70;99.90;;;;;;6185911;23;20017;-86
2023/03/17 09:44:07;;;;;;;8.13;4.75;;;12.70;99.90;;;;;;6209477;23;20396;-85
2023/03/17 09:47:05;;;;;;;9.80;4.82;;;12.80;99.90;;;;;;6210447;23;20019;-83
2023/03/17 09:49:44;;;;;;;8.95;4.50;;;12.90;99.90;;;;;;6160281;23;20024;-85
2023/03/17 09:52:17;;;;;;;8.43;4.65;;;13.00;99.90;;;;;;6209666;23;20012;-84
2023/03/17 09:54:47;;;;;;;8.70;4.78;;;13.00;99.90;;;;;;6211762;23;20386;-84
2023/03/17 09:57:16;;;;;;;8.18;4.80;;;13.00;99.90;;;;;;6212475;23;20338;-85
2023/03/17 09:59:46;;;;;;;8.55;5.05;;;13.00;99.90;;;;;;6213460;23;20127;-85
2023/03/17 10:02:25;;;;;;;8.45;5.10;;;13.00;99.90;;;;;;6212353;23;20127;-85
2023/03/17 10:04:51;;;;;;;9.15;5.07;;;13.00;99.90;;;;;;6210161;23;20017;-84
2023/03/17 10:08:00;;;;;;;8.10;5.07;;;13.10;99.90;;;;;;6209992;23;20342;-85
2023/03/17 10:10:41;;;;;;;8.13;4.93;;;13.20;99.90;;;;;;6150352;23;20311;-85
2023/03/17 10:13:36;;;;;;;10.13;5.45;;;13.40;99.90;;;;;;6127176;23;20021;-85
2023/03/17 10:16:13;;;;;;;9.23;5.45;;;13.40;99.90;;;;;;6146131;23;20048;-85
2023/03/17 10:19:05;;;;;;;9.43;5.03;;;13.40;99.90;;;;;;6152042;23;20054;-87
2023/03/17 10:21:35;;;;;;;8.55;5.20;;;13.50;99.90;;;;;;6151005;23;20078;-85
2023/03/17 10:24:03;;;;;;;8.32;5.45;;;13.60;99.90;;;;;;6127710;23;20021;-85
2023/03/17 10:26:49;;;;;;;8.15;4.65;;;13.70;99.90;;;;;;6159255;23;20022;-86
2023/03/17 10:29:21;;;;;;;8.85;5.47;;;13.80;99.90;;;;;;6108700;23;20087;-85
2023/03/17 10:31:47;;;;;;;8.77;5.57;;;13.90;99.90;;;;;;6135950;23;20491;-85
2023/03/17 10:34:27;;;;;;;8.73;5.60;;;13.90;99.90;;;;;;6134669;23;20059;-86
2023/03/17 10:37:04;;;;;;;9.27;5.32;;;14.00;99.90;;;;;;6159874;23;20089;-85
2023/03/17 10:39:30;;;;;;;8.75;5.30;;;14.00;99.90;;;;;;6156511;23;20019;-86
2023/03/17 10:42:08;;;;;;;9.02;5.32;;;14.10;99.90;;;;;;6154648;23;20045;-86
2023/03/17 10:44:49;;;;;;;8.68;5.20;;;14.10;99.90;;;;;;6151634;23;20017;-84
2023/03/17 10:47:39;;;;;;;8.98;5.05;;;14.10;99.90;;;;;;6177169;23;20017;-84
2023/03/17 10:50:16;;;;;;;7.97;5.10;;;14.20;99.90;;;;;;6199372;23;20023;-84
2023/03/17 10:52:45;;;;;;;10.63;5.88;;;14.30;99.90;;;;;;6211985;23;20123;-84
2023/03/17 10:55:15;;;;;;;9.07;5.60;;;14.20;99.90;;;;;;6188864;23;20044;-85
2023/03/17 10:57:51;;;;;;;24.10;7.90;;;14.20;99.90;;;;;;6214366;23;20040;-84
2023/03/17 11:00:22;;;;;;;32.25;8.57;;;14.20;99.90;;;;;;6214507;23;20009;-83
2023/03/17 11:02:58;;;;;;;11.27;5.38;;;14.20;99.90;;;;;;6211898;23;20445;-83
2023/03/17 11:05:28;;;;;;;8.80;5.63;;;14.30;99.90;;;;;;6211042;23;20019;-83
2023/03/17 11:08:14;;;;;;;8.75;5.50;;;14.40;99.90;;;;;;6210600;23;20023;-84
2023/03/17 11:10:40;;;;;;;8.65;6.10;;;14.40;99.90;;;;;;6211931;23;20021;-84
2023/03/17 11:13:14;;;;;;;8.85;5.45;;;14.50;99.90;;;;;;6212548;23;20024;-84
2023/03/17 11:15:45;;;;;;;9.05;5.35;;;14.50;99.90;;;;;;6210140;23;20031;-85
2023/03/17 11:18:23;;;;;;;9.88;5.65;;;14.60;99.90;;;;;;6210922;23;20024;-84
2023/03/17 11:21:22;;;;;;;9.82;5.65;;;14.70;99.90;;;;;;6211000;23;20016;-84
2023/03/17 11:24:09;;;;;;;8.65;5.38;;;14.80;99.90;;;;;;6210880;23;20016;-84
2023/03/17 11:26:46;;;;;;;9.23;5.07;;;14.90;99.90;;;;;;6207681;23;20016;-85
2023/03/17 11:29:54;;;;;;;8.40;5.43;;;15.00;99.90;;;;;;6212120;23;20012;-86
2023/03/17 11:32:55;;;;;;;8.88;5.10;;;15.20;99.90;;;;;;6207668;23;20073;-83
2023/03/17 11:35:38;;;;;;;10.50;5.68;;;15.30;99.90;;;;;;6131669;23;20044;-85
2023/03/17 11:38:27;;;;;;;9.07;5.60;;;15.40;99.90;;;;;;6130959;23;20053;-87
2023/03/17 11:41:16;;;;;;;8.75;5.70;;;15.50;99.90;;;;;;6159703;23;20030;-85
2023/03/17 11:43:53;;;;;;;9.18;5.68;;;15.60;99.90;;;;;;6135132;23;20088;-84
2023/03/17 11:46:32;;;;;;;9.73;5.95;;;15.60;99.90;;;;;;6125515;23;20088;-86
2023/03/17 11:49:04;;;;;;;10.55;5.72;;;15.70;99.90;;;;;;6124680;23;20040;-87
2023/03/17 11:51:55;;;;;;;8.48;5.65;;;15.80;99.90;;;;;;6149069;23;20213;-85
2023/03/17 11:54:33;;;;;;;9.10;5.30;;;15.90;99.90;;;;;;6150275;23;20024;-86
2023/03/17 11:57:03;;;;;;;9.48;6.30;;;15.90;99.90;;;;;;6150567;23;20045;-85
2023/03/17 11:59:55;;;;;;;8.77;5.50;;;15.90;99.90;;;;;;6124039;23;20024;-83
2023/03/17 12:02:24;;;;;;;9.07;5.72;;;16.00;99.90;;;;;;6148108;23;20080;-84
2023/03/17 12:05:16;;;;;;;8.90;5.53;;;16.10;99.90;;;;;;6149666;23;20060;-86
2023/03/17 12:07:58;;;;;;;8.57;5.85;;;16.20;99.90;;;;;;6144456;23;20080;-85
2023/03/17 12:10:40;;;;;;;8.85;5.43;;;16.20;99.90;;;;;;6099248;23;20028;-85
2023/03/17 12:13:10;;;;;;;8.75;6.03;;;16.20;99.90;;;;;;6194674;23;20021;-84
2023/03/17 12:15:38;;;;;;;8.85;6.22;;;16.20;99.90;;;;;;6208922;23;20008;-86
2023/03/17 12:18:31;;;;;;;15.45;7.13;;;16.30;99.90;;;;;;6212538;23;20342;-88
2023/03/17 12:21:08;;;;;;;9.07;5.65;;;16.30;99.90;;;;;;6218441;23;20016;-96
2023/03/17 12:24:00;;;;;;;9.27;5.50;;;16.30;99.90;;;;;;6210614;23;20434;-89
2023/03/17 12:26:36;;;;;;;8.65;5.50;;;16.30;99.90;;;;;;6210152;23;20062;-87
2023/03/17 12:29:15;;;;;;;8.93;5.97;;;16.30;99.90;;;;;;6212317;23;20020;-89
2023/03/17 12:31:54;;;;;;;9.50;6.07;;;16.50;99.90;;;;;;6211259;23;20342;-88
2023/03/17 12:34:33;;;;;;;9.88;5.75;;;16.60;99.90;;;;;;6209666;23;20017;-89
2023/03/17 12:36:59;;;;;;;11.00;6.28;;;16.70;99.90;;;;;;6210910;23;20012;-89
2023/03/17 12:39:31;;;;;;;9.60;5.90;;;16.80;99.90;;;;;;6212714;23;20160;-90
2023/03/17 12:42:20;;;;;;;9.73;6.07;;;16.80;99.90;;;;;;6211163;23;20016;-89
2023/03/17 12:45:35;;;;;;;10.27;6.15;;;16.80;99.90;;;;;;6212686;23;20019;-90
2023/03/17 12:48:34;;;;;;;10.30;6.55;;;16.70;99.90;;;;;;6212681;23;20319;-89
2023/03/17 12:51:16;;;;;;;11.73;6.95;;;16.60;99.90;;;;;;6211203;23;20047;-88
2023/03/17 12:53:46;;;;;;;10.40;6.40;;;16.50;99.90;;;;;;6210816;23;20016;-88
2023/03/17 12:56:26;;;;;;;10.73;6.70;;;16.50;99.90;;;;;;6187779;23;20398;-88
2023/03/17 12:58:57;;;;;;;9.88;6.78;;;16.50;99.90;;;;;;6214369;23;20040;-89
2023/03/17 13:01:37;;;;;;;10.63;6.90;;;16.40;99.90;;;;;;6213675;23;20031;-89
2023/03/17 13:04:15;;;;;;;10.90;6.82;;;16.50;99.90;;;;;;6215871;23;20456;-89
2023/03/17 13:06:54;;;;;;;9.98;6.60;;;16.50;99.90;;;;;;6212107;23;20017;-92